Terminal Aerodrome Forecast
Issued by NWS Central Illinois

Home | Current Version | Previous Version | Text Only | Print | Product List | Glossary On
Versions: 1 2 3 4 5 6 7 8 9 10 11 12 13 14 15 16 17 18 19
000
FTUS43 KILX 260749 AAA
TAFSPI
TAF AMD
KSPI 260749Z 2608/2706 16011KT P6SM BKN250
      TEMPO 2608/2610 BKN012
     FM261200 18014G20KT 6SM -SHRA VCTS SCT025CB BKN035
     FM261700 22016G25KT P6SM VCTS SCT025CB OVC040
     FM270000 21010KT P6SM SCT050=

USA.gov is the U.S. government's official web portal to all federal, state and local government web resources and services.